Preble, New York
Current Conditions -  °F | °C
As of 5:15 PM on Thursday 18 Dec 2014 (Local Time) from KN03 Reporting Station
Unknown Precip Unknown Precip  
Wind Chill: 23°   Ceiling: 1300
Heat Index: 30°   Visibility: 7mi
Dew Point: 28°   Wind: 7mph
Humidity: 93%   Direction: 280°W
Pressure: 30"   Gusts: NA
Location:  42.74°N, 76.15°W
Report Text: KN03 182215Z AUTO 28006KT 7SM UP OVC013 M01/M02 A3000 RMK AO2
Loading
Personal Weather Stations






























Interactive Weather Map New forecast layout! Learn more

10-Day Weather Forecast

Advertisements
Track Severe Weather on mobile